Time;durP1;ratioP1;P1;durP2;ratioP2;P2;SDS_P1;SDS_P2;PMS_P1;PMS_P2;Temp;Humidity;BMP_temperature;BMP_pressure;BME280_temperature;BME280_humidity;BME280_pressure;Samples;Min_cycle;Max_cycle;Signal;HPM_P1;HPM_P2
2022/08/14 00:01:21;;;;;;;31.53;30.03;;;19.60;63.10;;;;;;4979158;28;20485;-69
2022/08/14 00:03:48;;;;;;;32.33;30.83;;;19.50;63.20;;;;;;4979798;28;20571;-69
2022/08/14 00:06:15;;;;;;;33.53;31.93;;;19.50;63.40;;;;;;4987221;28;20494;-69
2022/08/14 00:08:42;;;;;;;32.87;31.17;;;19.50;63.20;;;;;;4985602;28;21051;-69
2022/08/14 00:11:10;;;;;;;33.17;31.67;;;19.40;63.40;;;;;;4978128;28;20863;-69
2022/08/14 00:13:37;;;;;;;33.50;32.00;;;19.40;63.60;;;;;;4983432;28;20462;-69
2022/08/14 00:16:04;;;;;;;33.47;31.87;;;19.40;63.80;;;;;;4990608;28;20530;-69
2022/08/14 00:18:31;;;;;;;32.93;31.00;;;19.30;64.00;;;;;;4986710;28;20896;-69
2022/08/14 00:20:59;;;;;;;31.30;29.80;;;19.30;63.90;;;;;;4979013;28;20918;-69
2022/08/14 00:23:26;;;;;;;31.80;30.30;;;19.30;63.80;;;;;;4981950;28;20494;-68
2022/08/14 00:25:56;;;;;;;33.20;31.50;;;19.20;64.10;;;;;;4978540;28;20576;-69
2022/08/14 00:28:26;;;;;;;33.60;31.83;;;19.10;64.50;;;;;;4987453;28;20832;-69
2022/08/14 00:30:56;;;;;;;34.30;32.20;;;19.00;64.60;;;;;;4976077;28;20504;-69
2022/08/14 00:33:23;;;;;;;34.77;32.73;;;19.00;64.70;;;;;;4980243;28;20507;-69
2022/08/14 00:35:50;;;;;;;33.37;31.67;;;18.90;65.00;;;;;;4985601;28;20543;-69
2022/08/14 00:38:18;;;;;;;32.87;31.37;;;18.90;65.10;;;;;;4978199;28;20544;-72
2022/08/14 00:40:45;;;;;;;33.90;32.10;;;18.80;65.50;;;;;;4980222;28;20499;-69
2022/08/14 00:43:12;;;;;;;32.50;31.00;;;18.70;65.60;;;;;;4979419;28;20601;-70
2022/08/14 00:45:40;;;;;;;32.20;30.60;;;18.60;66.00;;;;;;4982816;28;20528;-69
2022/08/14 00:48:09;;;;;;;31.60;30.10;;;18.70;65.90;;;;;;4981025;28;20462;-69
2022/08/14 00:50:36;;;;;;;31.83;30.17;;;18.70;65.80;;;;;;4989460;28;21260;-70
2022/08/14 00:53:05;;;;;;;32.80;31.10;;;18.70;65.60;;;;;;4981609;28;20548;-70
2022/08/14 00:55:35;;;;;;;33.07;30.80;;;18.70;65.80;;;;;;4985061;28;20960;-69
2022/08/14 01:00:49;;;;;;;31.70;30.20;;;18.60;65.90;;;;;;4976396;28;20481;-66
2022/08/14 01:03:18;;;;;;;33.00;31.40;;;18.60;66.20;;;;;;4980594;28;20575;-67
2022/08/14 01:05:48;;;;;;;32.80;31.20;;;18.60;66.20;;;;;;4979803;28;20511;-69
2022/08/14 01:08:19;;;;;;;31.90;30.30;;;18.60;66.20;;;;;;4983496;28;20492;-69
2022/08/14 01:10:52;;;;;;;32.20;30.17;;;18.60;66.10;;;;;;4986174;28;20580;-69
2022/08/14 01:13:22;;;;;;;31.60;30.10;;;18.60;66.00;;;;;;4986956;28;20448;-68
2022/08/14 01:15:53;;;;;;;32.00;30.20;;;18.60;66.00;;;;;;4974791;28;20504;-69
2022/08/14 01:21:10;;;;;;;32.07;30.47;;;18.50;66.10;;;;;;4973798;28;20469;-69
2022/08/14 01:23:42;;;;;;;31.80;30.40;;;18.60;66.10;;;;;;4980191;28;20481;-69
2022/08/14 01:26:10;;;;;;;32.70;31.10;;;18.50;66.10;;;;;;4987123;28;20459;-69
2022/08/14 01:28:38;;;;;;;33.37;31.80;;;18.60;65.90;;;;;;4996648;28;20464;-66
2022/08/14 01:31:08;;;;;;;33.70;32.10;;;18.60;66.00;;;;;;4987041;28;20490;-66
2022/08/14 01:33:39;;;;;;;34.63;33.03;;;18.50;66.10;;;;;;4985173;28;20984;-66
2022/08/14 01:36:08;;;;;;;33.33;31.63;;;18.60;66.00;;;;;;4992936;28;20548;-66
2022/08/14 01:38:36;;;;;;;34.43;32.90;;;18.60;66.00;;;;;;4994170;28;20467;-66
2022/08/14 01:41:07;;;;;;;33.60;31.70;;;18.60;65.60;;;;;;4993531;28;20566;-66
2022/08/14 01:43:43;;;;;;;35.57;33.77;;;18.60;65.60;;;;;;4986836;28;20476;-66
2022/08/14 01:46:11;;;;;;;34.53;32.73;;;18.50;65.90;;;;;;4987197;28;20563;-66
2022/08/14 01:48:40;;;;;;;30.40;28.90;;;18.50;65.90;;;;;;4990238;28;20988;-66
2022/08/14 01:51:08;;;;;;;34.70;32.70;;;18.50;66.10;;;;;;4987676;28;20933;-66
2022/08/14 01:53:35;;;;;;;33.43;31.63;;;18.50;66.20;;;;;;4993631;28;20553;-66
2022/08/14 01:56:05;;;;;;;34.33;32.50;;;18.50;66.30;;;;;;4991209;28;20512;-66
2022/08/14 01:58:32;;;;;;;32.30;30.80;;;18.40;66.20;;;;;;4995000;28;20952;-66
2022/08/14 02:01:00;;;;;;;33.40;31.80;;;18.40;66.40;;;;;;4987666;28;20598;-66
2022/08/14 02:03:29;;;;;;;33.30;31.70;;;18.40;66.60;;;;;;4990751;28;20769;-66
2022/08/14 02:05:58;;;;;;;34.67;33.07;;;18.40;66.60;;;;;;4986139;28;20463;-66
2022/08/14 02:08:28;;;;;;;33.90;32.40;;;18.30;66.80;;;;;;4988720;28;20471;-66
2022/08/14 02:13:42;;;;;;;33.83;32.17;;;18.30;67.00;;;;;;4983169;28;20449;-66
2022/08/14 02:16:09;;;;;;;35.37;33.60;;;18.20;67.20;;;;;;4982261;28;20454;-66
2022/08/14 02:18:36;;;;;;;35.47;33.80;;;18.20;67.40;;;;;;4996529;28;20517;-66
2022/08/14 02:21:03;;;;;;;34.20;32.60;;;18.10;67.50;;;;;;4978992;28;20487;-66
2022/08/14 02:23:31;;;;;;;37.20;35.40;;;18.00;67.80;;;;;;4990486;28;20594;-66
2022/08/14 02:26:00;;;;;;;34.27;32.57;;;18.00;67.70;;;;;;4993163;28;20471;-66
2022/08/14 02:28:30;;;;;;;33.70;31.90;;;18.00;67.70;;;;;;4976309;28;20464;-66
2022/08/14 02:30:58;;;;;;;33.67;32.07;;;18.00;68.00;;;;;;4983220;28;20479;-66
2022/08/14 02:33:27;;;;;;;32.10;30.60;;;18.00;67.70;;;;;;4983378;28;20555;-65
2022/08/14 02:35:55;;;;;;;32.50;31.00;;;18.10;67.40;;;;;;4991322;28;20464;-66
2022/08/14 02:38:21;;;;;;;32.53;30.97;;;18.10;67.30;;;;;;4982042;28;20459;-67
2022/08/14 02:40:48;;;;;;;32.10;30.60;;;18.10;67.40;;;;;;4983974;28;20577;-66
2022/08/14 02:43:16;;;;;;;36.57;34.77;;;18.10;67.60;;;;;;4983428;28;20572;-66
2022/08/14 02:45:44;;;;;;;32.70;31.20;;;18.10;67.60;;;;;;4988727;28;20456;-66
2022/08/14 02:48:13;;;;;;;34.30;32.70;;;18.10;67.80;;;;;;4987349;28;20521;-66
2022/08/14 02:50:41;;;;;;;35.47;33.37;;;18.00;68.00;;;;;;4988504;28;20479;-66
2022/08/14 02:53:08;;;;;;;33.00;31.40;;;17.90;68.20;;;;;;4980571;28;20484;-66
2022/08/14 02:55:36;;;;;;;34.40;32.60;;;17.80;68.50;;;;;;4982346;28;20461;-66
2022/08/14 02:58:04;;;;;;;34.03;32.43;;;17.80;68.90;;;;;;4985625;28;20474;-66
2022/08/14 03:00:33;;;;;;;32.97;31.30;;;17.70;69.10;;;;;;4988734;28;20893;-66
2022/08/14 03:03:03;;;;;;;34.03;32.43;;;17.70;69.20;;;;;;4989767;28;20476;-66
2022/08/14 03:05:31;;;;;;;35.37;33.77;;;17.60;69.40;;;;;;4987704;28;20454;-66
2022/08/14 03:08:05;;;;;;;34.00;32.40;;;17.60;69.70;;;;;;4994275;28;20564;-66
2022/08/14 03:10:32;;;;;;;34.90;33.20;;;17.60;69.70;;;;;;4987853;28;20529;-66
2022/08/14 03:13:00;;;;;;;33.27;31.67;;;17.50;69.80;;;;;;4994988;28;20451;-66
2022/08/14 03:15:27;;;;;;;35.70;34.10;;;17.40;70.20;;;;;;4980833;28;20473;-66
2022/08/14 03:17:54;;;;;;;35.53;33.80;;;17.30;70.50;;;;;;4990151;28;20487;-66
2022/08/14 03:20:21;;;;;;;34.37;32.87;;;17.30;70.50;;;;;;4984498;28;20479;-66
2022/08/14 03:22:51;;;;;;;33.20;31.60;;;17.30;70.60;;;;;;4977443;28;20572;-69
2022/08/14 03:25:20;;;;;;;35.33;33.63;;;17.30;70.60;;;;;;4974577;28;20466;-69
2022/08/14 03:27:47;;;;;;;36.93;35.07;;;17.30;70.50;;;;;;4977210;28;20463;-69
2022/08/14 03:30:14;;;;;;;34.10;32.20;;;17.30;70.50;;;;;;4984975;28;20570;-72
2022/08/14 03:32:42;;;;;;;35.93;34.23;;;17.30;70.60;;;;;;4990048;28;20569;-68
2022/08/14 03:35:10;;;;;;;36.37;34.67;;;17.30;70.60;;;;;;4977839;28;20500;-66
2022/08/14 03:37:37;;;;;;;35.33;33.73;;;17.30;70.60;;;;;;4985903;28;20462;-71
2022/08/14 03:40:07;;;;;;;36.60;34.70;;;17.30;70.80;;;;;;4984079;28;20500;-69
2022/08/14 03:42:34;;;;;;;34.13;32.43;;;17.20;70.90;;;;;;4978431;28;20813;-69
2022/08/14 03:45:01;;;;;;;33.40;31.80;;;17.10;71.20;;;;;;4988698;28;20572;-72
2022/08/14 03:47:28;;;;;;;34.93;33.10;;;17.10;71.50;;;;;;4984342;28;20557;-66
2022/08/14 03:49:55;;;;;;;34.80;33.20;;;17.00;71.90;;;;;;4986083;28;20550;-66
2022/08/14 03:52:22;;;;;;;34.47;32.77;;;16.90;72.10;;;;;;4993930;28;20828;-66
2022/08/14 03:54:49;;;;;;;33.70;32.10;;;16.80;72.40;;;;;;4979028;28;20497;-66
2022/08/14 03:57:18;;;;;;;34.57;32.67;;;16.70;72.80;;;;;;4986927;28;20569;-66
2022/08/14 03:59:46;;;;;;;35.57;33.53;;;16.70;72.80;;;;;;4975202;28;20501;-66
2022/08/14 04:02:13;;;;;;;34.20;32.33;;;16.80;72.80;;;;;;4980029;28;21066;-67
2022/08/14 04:04:43;;;;;;;37.57;35.57;;;16.70;72.80;;;;;;4978130;28;20478;-66
2022/08/14 04:07:10;;;;;;;34.50;32.80;;;16.80;72.70;;;;;;4982712;28;20553;-66
2022/08/14 04:09:37;;;;;;;35.77;33.87;;;16.80;72.50;;;;;;4986010;28;20454;-66
2022/08/14 04:12:04;;;;;;;36.03;34.33;;;16.80;72.50;;;;;;4973175;28;20906;-66
2022/08/14 04:14:33;;;;;;;33.30;31.70;;;16.80;72.50;;;;;;4990974;28;20462;-66
2022/08/14 04:16:59;;;;;;;34.77;33.07;;;16.90;72.40;;;;;;4984478;28;20581;-66
2022/08/14 04:19:27;;;;;;;35.80;33.93;;;16.90;72.20;;;;;;4978891;28;20458;-66
2022/08/14 04:21:54;;;;;;;36.70;35.00;;;16.90;72.10;;;;;;4976704;28;20483;-68
2022/08/14 04:24:21;;;;;;;34.67;32.97;;;16.90;72.00;;;;;;4984516;28;20482;-69
2022/08/14 04:26:48;;;;;;;34.90;33.30;;;17.00;72.00;;;;;;4991973;28;20573;-68
2022/08/14 04:29:15;;;;;;;35.00;33.40;;;17.10;71.70;;;;;;4982486;28;20550;-72
2022/08/14 04:31:44;;;;;;;36.70;34.90;;;17.10;71.50;;;;;;4975041;28;20581;-71
2022/08/14 04:34:10;;;;;;;33.70;31.90;;;17.10;71.40;;;;;;4978631;28;20891;-74
2022/08/14 04:43:34;;;;;;;36.13;34.40;;;17.20;71.40;;;;;;4984426;28;20812;-68
2022/08/14 04:44:54;;;;;;;34.20;32.60;;;17.20;71.40;;;;;;4993831;28;20501;-68
2022/08/14 04:50:07;;;;;;;34.57;32.93;;;17.20;71.50;;;;;;4985040;28;20472;-70
2022/08/14 04:52:34;;;;;;;33.50;31.73;;;17.20;71.40;;;;;;4986919;28;20565;-68
2022/08/14 04:55:01;;;;;;;35.10;33.33;;;17.30;71.20;;;;;;4986269;28;21901;-71
2022/08/14 04:57:28;;;;;;;43.93;41.77;;;17.50;71.00;;;;;;4973229;28;20456;-68
2022/08/14 04:59:55;;;;;;;33.53;31.83;;;17.60;70.70;;;;;;4989897;28;20901;-68
2022/08/14 05:02:26;;;;;;;37.70;36.00;;;17.70;70.20;;;;;;4978328;28;20471;-68
2022/08/14 05:04:53;;;;;;;41.40;39.50;;;17.90;69.70;;;;;;4989538;28;20617;-68
2022/08/14 05:07:20;;;;;;;34.03;32.43;;;18.00;69.10;;;;;;4977609;28;20881;-69
2022/08/14 05:09:47;;;;;;;38.37;36.57;;;18.10;68.90;;;;;;4988071;28;20488;-68
2022/08/14 05:12:14;;;;;;;35.63;33.83;;;18.30;68.60;;;;;;4975388;28;20551;-68
2022/08/14 05:14:41;;;;;;;35.40;33.60;;;18.40;68.20;;;;;;4978079;28;20545;-68
2022/08/14 05:17:09;;;;;;;35.10;33.50;;;18.50;67.60;;;;;;4985815;28;20496;-68
2022/08/14 05:19:37;;;;;;;33.70;32.20;;;18.70;67.30;;;;;;4987808;28;20462;-68
2022/08/14 05:22:04;;;;;;;42.23;40.23;;;18.80;66.90;;;;;;4975771;28;20524;-68
2022/08/14 05:24:31;;;;;;;37.23;35.17;;;18.80;66.90;;;;;;4987650;28;20481;-68
2022/08/14 05:26:58;;;;;;;37.87;35.90;;;18.80;67.00;;;;;;4977378;28;20466;-70
2022/08/14 05:29:25;;;;;;;33.20;31.50;;;18.80;67.10;;;;;;4973928;28;20463;-68
2022/08/14 05:31:55;;;;;;;49.80;47.33;;;18.90;66.90;;;;;;4975266;28;20499;-68
2022/08/14 05:34:22;;;;;;;33.47;31.87;;;19.00;66.70;;;;;;4977710;28;20994;-67
2022/08/14 05:36:56;;;;;;;32.27;30.80;;;19.20;66.30;;;;;;4978041;28;20461;-70
2022/08/14 05:39:23;;;;;;;35.70;34.07;;;19.20;66.10;;;;;;4987675;28;20831;-68
2022/08/14 05:41:50;;;;;;;46.00;43.70;;;19.30;66.30;;;;;;4976511;28;20492;-68
2022/08/14 05:44:17;;;;;;;31.83;30.30;;;19.40;65.80;;;;;;4981596;28;20488;-68
2022/08/14 05:46:44;;;;;;;33.13;31.63;;;19.50;65.50;;;;;;4984155;28;20458;-68
2022/08/14 05:49:12;;;;;;;34.30;32.70;;;19.60;65.20;;;;;;4984310;28;20541;-69
2022/08/14 05:51:40;;;;;;;32.93;31.43;;;19.80;64.60;;;;;;4979419;28;20857;-68
2022/08/14 05:54:08;;;;;;;32.37;30.87;;;19.80;64.40;;;;;;4981290;28;20544;-69
2022/08/14 05:56:35;;;;;;;43.37;41.33;;;19.90;64.00;;;;;;4980016;28;20461;-68
2022/08/14 05:59:02;;;;;;;33.50;31.90;;;20.00;63.80;;;;;;4986199;28;20461;-66
2022/08/14 06:01:29;;;;;;;51.27;48.93;;;20.10;63.70;;;;;;4985191;28;21099;-66
2022/08/14 06:03:56;;;;;;;32.33;30.73;;;20.10;63.70;;;;;;4987352;28;20533;-66
2022/08/14 06:06:23;;;;;;;35.60;33.70;;;20.20;63.70;;;;;;4987251;28;20545;-67
2022/08/14 06:08:50;;;;;;;34.70;33.00;;;20.20;64.00;;;;;;4992470;28;20545;-66
2022/08/14 06:11:18;;;;;;;33.10;31.60;;;20.30;63.80;;;;;;4989189;28;20475;-66
2022/08/14 06:13:45;;;;;;;46.43;44.23;;;20.30;63.70;;;;;;4980481;28;21036;-66
2022/08/14 06:16:15;;;;;;;36.10;34.50;;;20.40;63.60;;;;;;4983664;28;20466;-66
2022/08/14 06:18:42;;;;;;;34.83;33.23;;;20.50;63.40;;;;;;4988552;28;20834;-66
2022/08/14 06:21:09;;;;;;;34.50;32.90;;;20.60;63.10;;;;;;4988100;28;20575;-67
2022/08/14 06:23:36;;;;;;;33.23;31.63;;;20.60;63.20;;;;;;4991230;28;20541;-72
2022/08/14 06:26:03;;;;;;;34.43;32.80;;;20.70;63.10;;;;;;4996403;28;20562;-67
2022/08/14 06:28:31;;;;;;;33.40;31.60;;;20.70;62.90;;;;;;4992888;28;20524;-67
2022/08/14 06:30:58;;;;;;;40.30;38.40;;;20.80;62.70;;;;;;4984936;28;20663;-66
2022/08/14 06:33:25;;;;;;;34.53;32.47;;;20.90;62.10;;;;;;4983640;28;20462;-68
2022/08/14 06:35:52;;;;;;;35.07;33.47;;;21.00;61.80;;;;;;4986253;28;20511;-66
2022/08/14 06:38:20;;;;;;;35.60;33.50;;;21.20;61.50;;;;;;4988486;28;20475;-69
2022/08/14 06:40:48;;;;;;;49.80;47.40;;;21.30;60.90;;;;;;4984873;28;20514;-70
2022/08/14 06:43:16;;;;;;;33.17;31.60;;;21.40;60.80;;;;;;4989794;28;20504;-70
2022/08/14 06:45:47;;;;;;;40.60;38.47;;;21.50;60.40;;;;;;4988314;28;20553;-70
2022/08/14 06:48:15;;;;;;;32.50;30.90;;;21.60;60.10;;;;;;4987653;28;20585;-69
2022/08/14 06:50:43;;;;;;;34.20;32.60;;;21.80;59.90;;;;;;4991441;28;20474;-69
2022/08/14 06:53:10;;;;;;;31.40;29.80;;;22.00;59.40;;;;;;4993522;28;20828;-69
2022/08/14 06:55:37;;;;;;;32.33;30.93;;;22.10;59.00;;;;;;4987903;28;20460;-69
2022/08/14 06:58:05;;;;;;;31.10;29.60;;;22.10;58.70;;;;;;4990975;28;20553;-71
2022/08/14 07:00:32;;;;;;;38.37;36.47;;;22.20;57.80;;;;;;4990061;28;20516;-70
2022/08/14 07:05:47;;;;;;;39.60;37.80;;;22.60;57.00;;;;;;4985233;28;20481;-69
2022/08/14 07:08:16;;;;;;;50.07;47.27;;;22.60;56.50;;;;;;4982905;28;20463;-68
2022/08/14 07:10:44;;;;;;;40.33;38.27;;;22.70;56.50;;;;;;4989578;28;20493;-68
2022/08/14 07:13:12;;;;;;;38.87;36.97;;;22.70;56.50;;;;;;4987455;28;21206;-73
2022/08/14 07:15:38;;;;;;;34.93;33.33;;;22.80;56.10;;;;;;4988487;28;20477;-72
2022/08/14 07:18:08;;;;;;;33.30;31.60;;;22.90;55.90;;;;;;4984295;28;20490;-71
2022/08/14 07:20:35;;;;;;;35.47;33.70;;;23.00;55.40;;;;;;4980387;28;21065;-72
2022/08/14 07:23:03;;;;;;;35.20;33.50;;;23.00;55.10;;;;;;4989691;28;20464;-72
2022/08/14 07:25:30;;;;;;;42.47;40.33;;;23.00;55.10;;;;;;4985407;28;20541;-75
2022/08/14 07:27:57;;;;;;;31.30;29.80;;;23.10;55.20;;;;;;4982627;28;20510;-74
2022/08/14 07:30:24;;;;;;;48.10;45.50;;;23.30;54.40;;;;;;4985654;28;20505;-74
2022/08/14 07:32:51;;;;;;;37.13;34.50;;;23.30;54.50;;;;;;4978665;28;20507;-71
2022/08/14 07:35:20;;;;;;;40.93;38.90;;;23.50;54.60;;;;;;4975082;28;20459;-72
2022/08/14 07:37:48;;;;;;;35.57;33.63;;;23.60;54.00;;;;;;4999588;28;20458;-71
2022/08/14 07:40:16;;;;;;;35.67;34.07;;;23.70;53.80;;;;;;4980220;28;20848;-75
2022/08/14 07:42:43;;;;;;;33.93;32.23;;;23.80;53.30;;;;;;4991045;28;20458;-71
2022/08/14 07:45:12;;;;;;;40.03;38.00;;;23.80;53.10;;;;;;4988583;28;20572;-73
2022/08/14 07:47:42;;;;;;;32.83;31.33;;;23.90;53.20;;;;;;4989337;28;20557;-72
2022/08/14 07:50:14;;;;;;;35.13;33.53;;;23.90;52.80;;;;;;4991817;28;20561;-72
2022/08/14 07:52:44;;;;;;;38.47;36.53;;;24.10;52.30;;;;;;4980372;28;21028;-71
2022/08/14 07:55:12;;;;;;;38.93;37.13;;;24.30;52.10;;;;;;4988972;28;20526;-68
2022/08/14 07:57:40;;;;;;;35.40;33.73;;;24.30;52.00;;;;;;4985674;28;20567;-69
2022/08/14 08:00:11;;;;;;;35.67;33.87;;;24.50;51.30;;;;;;4985164;28;21171;-67
2022/08/14 08:02:40;;;;;;;42.10;40.00;;;24.60;51.20;;;;;;4985758;28;20543;-67
2022/08/14 08:05:08;;;;;;;34.90;33.30;;;24.60;51.00;;;;;;4989678;28;20480;-69
2022/08/14 08:07:36;;;;;;;36.83;34.93;;;24.70;50.50;;;;;;4989453;28;20476;-68
2022/08/14 08:12:50;;;;;;;34.83;33.13;;;24.90;49.30;;;;;;4987547;28;20546;-67
2022/08/14 08:15:18;;;;;;;36.00;34.30;;;24.90;49.20;;;;;;4991178;28;20900;-67
2022/08/14 08:17:46;;;;;;;33.10;31.23;;;24.90;48.80;;;;;;4988780;28;20588;-69
2022/08/14 08:20:16;;;;;;;42.67;40.50;;;24.70;48.50;;;;;;4993574;28;20483;-67
2022/08/14 08:22:43;;;;;;;42.30;40.17;;;24.90;49.10;;;;;;4982639;28;20557;-66
2022/08/14 08:25:11;;;;;;;34.17;32.53;;;25.10;48.40;;;;;;4988959;28;20480;-67
2022/08/14 08:27:39;;;;;;;33.90;32.30;;;25.30;48.20;;;;;;4983716;28;20477;-67
2022/08/14 08:30:08;;;;;;;34.00;32.40;;;25.20;48.10;;;;;;5000223;28;21053;-67
2022/08/14 08:32:39;;;;;;;34.53;32.93;;;25.40;47.70;;;;;;4975773;28;20962;-66
2022/08/14 08:35:11;;;;;;;40.73;38.63;;;25.20;47.60;;;;;;4987754;28;20541;-68
2022/08/14 08:37:38;;;;;;;34.27;32.57;;;25.30;47.80;;;;;;4982944;28;20462;-67
2022/08/14 08:40:06;;;;;;;34.20;32.50;;;25.50;47.40;;;;;;4992023;28;20500;-67
2022/08/14 08:42:34;;;;;;;42.10;40.00;;;25.70;47.20;;;;;;4990556;28;20465;-67
2022/08/14 08:45:01;;;;;;;43.27;41.00;;;25.90;46.30;;;;;;4986619;28;20637;-67
2022/08/14 08:47:38;;;;;;;38.03;36.27;;;25.80;46.20;;;;;;4981992;28;20513;-67
2022/08/14 08:50:19;;;;;;;40.40;38.33;;;25.80;45.80;;;;;;4994218;28;20487;-67
2022/08/14 08:52:54;;;;;;;35.87;33.93;;;25.90;45.80;;;;;;4989689;28;21015;-66
2022/08/14 08:55:29;;;;;;;34.73;33.13;;;25.90;45.40;;;;;;4989060;28;20453;-66
2022/08/14 08:57:59;;;;;;;34.60;32.90;;;26.10;45.20;;;;;;4985517;28;20468;-66
2022/08/14 09:00:32;;;;;;;36.97;35.20;;;26.40;44.30;;;;;;4982381;28;20819;-66
2022/08/14 09:03:02;;;;;;;44.43;42.20;;;26.40;44.40;;;;;;4985741;28;20959;-66
2022/08/14 09:05:30;;;;;;;42.83;40.63;;;26.50;44.30;;;;;;4990189;28;20536;-66
2022/08/14 09:08:10;;;;;;;42.23;40.00;;;26.70;44.10;;;;;;4987156;28;20553;-66
2022/08/14 09:10:37;;;;;;;37.43;35.57;;;26.70;44.10;;;;;;4995317;28;21025;-67
2022/08/14 09:13:06;;;;;;;44.43;41.90;;;26.90;44.00;;;;;;4990370;28;20902;-67
2022/08/14 09:15:33;;;;;;;39.97;38.03;;;26.90;43.70;;;;;;4988743;28;21013;-67
2022/08/14 09:18:00;;;;;;;38.97;37.07;;;27.00;44.20;;;;;;4983873;28;20549;-67
2022/08/14 09:20:27;;;;;;;45.13;42.93;;;27.30;43.50;;;;;;4984454;28;20485;-66
2022/08/14 09:22:55;;;;;;;43.37;41.20;;;27.50;43.50;;;;;;4988700;28;20501;-68
2022/08/14 09:25:22;;;;;;;33.55;31.85;;;27.60;43.30;;;;;;4979327;28;20458;-66
2022/08/14 09:27:49;;;;;;;39.60;37.40;;;27.60;43.40;;;;;;4989332;28;20655;-66
2022/08/14 09:30:17;;;;;;;34.93;33.03;;;27.80;43.00;;;;;;4984216;28;20852;-66
2022/08/14 09:32:56;;;;;;;44.17;41.90;;;27.70;43.10;;;;;;4980948;28;20974;-67
2022/08/14 09:35:30;;;;;;;40.10;38.00;;;27.60;43.40;;;;;;4981156;28;20541;-67
2022/08/14 09:38:06;;;;;;;33.07;31.17;;;27.50;44.30;;;;;;4983112;28;20468;-67
2022/08/14 09:40:45;;;;;;;38.40;36.30;;;27.70;43.80;;;;;;4983386;28;20573;-67
2022/08/14 09:43:26;;;;;;;36.90;34.93;;;27.60;44.30;;;;;;4987622;28;20479;-67
2022/08/14 09:45:57;;;;;;;45.90;43.50;;;27.70;43.90;;;;;;4991005;28;20564;-68
2022/08/14 09:48:25;;;;;;;47.50;45.00;;;27.80;43.70;;;;;;4998245;28;20527;-68
2022/08/14 09:50:54;;;;;;;39.27;37.33;;;28.00;43.30;;;;;;4991739;28;20561;-68
2022/08/14 09:53:41;;;;;;;41.20;39.10;;;28.00;42.80;;;;;;4987470;28;20469;-68
2022/08/14 09:56:08;;;;;;;35.37;33.57;;;28.10;42.90;;;;;;4988834;28;20515;-72
2022/08/14 09:58:41;;;;;;;35.60;33.60;;;28.10;42.40;;;;;;4991485;28;20567;-69
2022/08/14 10:01:11;;;;;;;35.53;33.70;;;27.90;42.60;;;;;;4988898;28;20565;-67
2022/08/14 10:03:48;;;;;;;35.30;33.50;;;27.70;42.90;;;;;;4986459;28;20537;-67
2022/08/14 10:06:17;;;;;;;35.63;34.00;;;27.80;42.90;;;;;;4992218;28;20472;-67
2022/08/14 10:08:47;;;;;;;36.10;34.40;;;28.00;42.70;;;;;;4987682;28;20469;-67
2022/08/14 10:11:19;;;;;;;37.10;35.20;;;28.20;42.50;;;;;;4994029;28;20496;-66
2022/08/14 10:13:50;;;;;;;47.03;44.63;;;28.40;41.90;;;;;;4992985;28;21192;-67
2022/08/14 10:16:19;;;;;;;37.00;35.30;;;28.30;41.90;;;;;;4986082;28;20450;-67
2022/08/14 10:18:49;;;;;;;39.53;37.60;;;28.30;41.80;;;;;;4981475;28;20795;-66
2022/08/14 10:21:17;;;;;;;45.17;42.90;;;28.60;41.70;;;;;;4993755;28;20469;-67
2022/08/14 10:23:48;;;;;;;38.73;36.73;;;28.70;41.40;;;;;;4992431;28;20884;-67
2022/08/14 10:26:18;;;;;;;38.40;36.60;;;28.70;41.20;;;;;;4995285;28;20493;-67
2022/08/14 10:28:47;;;;;;;36.03;34.33;;;28.70;41.30;;;;;;4984737;28;20499;-67
2022/08/14 10:31:22;;;;;;;44.87;42.37;;;28.60;41.50;;;;;;4992111;28;20589;-67
2022/08/14 10:34:04;;;;;;;45.33;42.93;;;28.80;41.20;;;;;;4982603;28;20467;-67
2022/08/14 10:36:34;;;;;;;44.50;42.17;;;28.90;40.50;;;;;;4989938;28;21034;-67
2022/08/14 10:39:03;;;;;;;35.13;33.03;;;28.90;40.60;;;;;;4989712;28;20490;-67
2022/08/14 10:41:38;;;;;;;34.67;32.87;;;29.00;40.20;;;;;;4992175;28;20513;-67
2022/08/14 10:44:09;;;;;;;32.00;30.40;;;29.10;39.90;;;;;;4988760;28;20468;-67
2022/08/14 10:46:42;;;;;;;34.87;32.77;;;29.00;40.00;;;;;;4982900;28;20478;-67
2022/08/14 10:49:19;;;;;;;32.50;30.80;;;29.00;40.40;;;;;;4984819;28;20498;-67
2022/08/14 10:51:58;;;;;;;39.20;37.13;;;29.10;40.20;;;;;;4994300;28;20513;-67
2022/08/14 10:54:31;;;;;;;35.23;33.43;;;29.10;40.50;;;;;;4990314;28;20694;-67
2022/08/14 10:56:58;;;;;;;31.73;30.23;;;29.20;40.20;;;;;;4977907;28;20821;-67
2022/08/14 10:59:26;;;;;;;34.83;33.13;;;29.20;40.30;;;;;;4981489;28;20458;-67
2022/08/14 11:01:57;;;;;;;41.00;39.00;;;29.40;39.80;;;;;;4991831;28;20465;-67
2022/08/14 11:04:27;;;;;;;34.23;32.53;;;29.50;39.70;;;;;;4976363;28;20466;-67
2022/08/14 11:06:55;;;;;;;35.37;33.60;;;29.60;39.90;;;;;;4986522;28;20485;-67
2022/08/14 11:09:22;;;;;;;37.43;35.53;;;29.60;39.30;;;;;;4990671;28;20458;-67
2022/08/14 11:11:55;;;;;;;33.60;32.00;;;29.50;39.30;;;;;;4981104;28;20487;-67
2022/08/14 11:14:22;;;;;;;32.60;31.00;;;29.70;39.10;;;;;;4975842;28;20455;-67
2022/08/14 11:16:51;;;;;;;34.07;32.33;;;29.70;39.10;;;;;;4973699;28;20459;-67
2022/08/14 11:19:21;;;;;;;52.03;49.50;;;29.80;39.00;;;;;;4986570;28;20541;-67
2022/08/14 11:21:50;;;;;;;31.97;30.43;;;29.80;38.90;;;;;;4984813;28;20504;-67
2022/08/14 11:24:19;;;;;;;40.37;38.17;;;30.00;38.60;;;;;;4990535;28;20481;-67
2022/08/14 11:26:47;;;;;;;42.87;40.70;;;30.00;38.60;;;;;;4988125;28;20474;-67
2022/08/14 11:29:14;;;;;;;37.57;35.70;;;30.00;38.50;;;;;;4984083;28;20553;-67
2022/08/14 11:31:41;;;;;;;35.17;33.47;;;30.00;38.80;;;;;;4995180;28;20836;-67
2022/08/14 11:34:09;;;;;;;34.57;32.97;;;30.10;38.40;;;;;;4987110;28;20466;-67
2022/08/14 11:36:37;;;;;;;42.90;40.87;;;30.10;38.70;;;;;;4988817;28;20445;-67
2022/08/14 11:39:04;;;;;;;54.60;51.97;;;30.10;38.20;;;;;;4991266;28;20489;-67
2022/08/14 11:41:34;;;;;;;37.33;35.37;;;29.80;38.60;;;;;;4982776;28;20545;-67
2022/08/14 11:44:01;;;;;;;43.83;41.73;;;29.80;37.80;;;;;;4974795;28;20461;-67
2022/08/14 11:46:31;;;;;;;43.47;41.17;;;29.80;37.90;;;;;;4984226;28;20566;-67
2022/08/14 11:49:00;;;;;;;54.57;51.67;;;29.90;38.00;;;;;;4986663;28;20838;-65
2022/08/14 11:51:27;;;;;;;36.83;35.00;;;30.20;37.80;;;;;;4980549;28;20547;-65
2022/08/14 11:54:00;;;;;;;40.37;38.47;;;30.30;37.20;;;;;;4987921;28;20968;-64
2022/08/14 11:56:35;;;;;;;39.40;37.47;;;30.50;37.10;;;;;;4975744;28;20555;-67
2022/08/14 11:59:02;;;;;;;36.93;35.23;;;30.40;37.50;;;;;;4984196;28;20466;-65
2022/08/14 12:01:30;;;;;;;33.30;31.60;;;30.20;37.70;;;;;;4978199;28;21004;-65
2022/08/14 12:04:10;;;;;;;61.07;58.30;;;30.30;37.50;;;;;;4982075;28;20458;-65
2022/08/14 12:06:48;;;;;;;40.77;38.77;;;30.30;37.30;;;;;;4981432;28;20572;-64
2022/08/14 12:09:28;;;;;;;40.13;38.13;;;30.30;37.60;;;;;;4976312;28;20462;-65
2022/08/14 12:11:55;;;;;;;33.53;31.73;;;30.50;37.00;;;;;;4984182;28;20560;-65
2022/08/14 12:14:22;;;;;;;45.70;43.40;;;30.60;36.90;;;;;;4977945;28;20458;-65
2022/08/14 12:16:59;;;;;;;36.00;34.30;;;30.70;37.00;;;;;;4978346;28;20461;-67
2022/08/14 12:19:26;;;;;;;44.20;42.00;;;30.70;36.10;;;;;;4976169;28;21038;-67
2022/08/14 12:21:53;;;;;;;52.67;50.20;;;30.80;35.90;;;;;;4972143;28;20479;-67
2022/08/14 12:24:28;;;;;;;36.00;34.20;;;30.90;35.80;;;;;;4985878;28;20797;-67
2022/08/14 12:26:56;;;;;;;37.47;35.77;;;31.00;35.80;;;;;;4987665;28;20505;-67
2022/08/14 12:29:23;;;;;;;50.50;47.80;;;31.00;35.80;;;;;;4983383;28;20836;-65
2022/08/14 12:32:02;;;;;;;41.90;39.60;;;31.30;35.50;;;;;;4985422;28;20512;-65
2022/08/14 12:34:31;;;;;;;44.90;42.60;;;31.50;34.80;;;;;;4970603;28;20952;-65
2022/08/14 12:37:04;;;;;;;39.73;37.57;;;31.60;34.10;;;;;;4984578;28;20454;-67
2022/08/14 12:39:33;;;;;;;35.63;33.93;;;31.60;34.20;;;;;;4977591;28;20462;-67
2022/08/14 12:42:05;;;;;;;33.77;32.10;;;31.50;34.50;;;;;;4979263;28;21053;-68
2022/08/14 12:44:34;;;;;;;56.30;53.40;;;31.50;34.50;;;;;;4977927;28;20459;-67
2022/08/14 12:47:04;;;;;;;38.73;37.03;;;31.50;34.40;;;;;;4980159;28;20980;-65
2022/08/14 12:49:32;;;;;;;58.03;55.23;;;31.60;33.90;;;;;;4987382;28;20977;-68
2022/08/14 12:52:01;;;;;;;33.67;32.07;;;31.70;33.70;;;;;;4973545;28;20992;-67
2022/08/14 12:54:28;;;;;;;35.10;33.30;;;31.80;33.60;;;;;;4987449;28;20458;-67
2022/08/14 12:57:06;;;;;;;37.40;35.70;;;31.90;33.30;;;;;;4985170;28;20460;-64
2022/08/14 12:59:34;;;;;;;49.23;46.90;;;32.00;32.80;;;;;;4978070;28;20548;-65